createdAt,value
2022-12-18T00:02:02.785Z,-2.30
2022-12-18T00:07:04.268Z,-2.30
2022-12-18T00:17:17.226Z,-2.20
2022-12-18T00:22:18.649Z,-2.20
2022-12-18T00:27:20.067Z,-2.30
2022-12-18T00:32:21.515Z,-2.30
2022-12-18T00:37:22.957Z,-2.30
2022-12-18T00:42:24.401Z,-2.20
2022-12-18T00:47:25.830Z,-2.20
2022-12-18T00:52:27.276Z,-2.20
2022-12-18T00:57:28.731Z,-2.20
2022-12-18T01:02:30.290Z,-2.20
2022-12-18T01:07:31.747Z,-2.20
2022-12-18T01:12:33.194Z,-2.30
2022-12-18T01:17:34.616Z,-2.30
2022-12-18T01:22:36.045Z,-2.30
2022-12-18T01:27:37.501Z,-2.30
2022-12-18T01:32:38.957Z,-2.30
2022-12-18T01:37:40.419Z,-2.30
2022-12-18T01:42:41.880Z,-2.30
2022-12-18T01:47:43.334Z,-2.40
2022-12-18T01:52:47.003Z,-2.30
2022-12-18T01:57:48.439Z,-2.20
2022-12-18T02:02:50.035Z,-2.30
2022-12-18T02:07:51.529Z,-2.30
2022-12-18T02:12:52.986Z,-2.20
2022-12-18T02:17:54.452Z,-2.20
2022-12-18T02:22:55.878Z,-2.20
2022-12-18T02:27:57.294Z,-2.20
2022-12-18T02:32:58.747Z,-2.10
2022-12-18T02:38:00.165Z,-2.10
2022-12-18T02:43:01.619Z,-2.20
2022-12-18T02:48:03.083Z,-2.20
2022-12-18T02:53:04.504Z,-2.30
2022-12-18T02:58:05.954Z,-2.20
2022-12-18T03:03:07.477Z,-2.20
2022-12-18T03:08:08.961Z,-2.20
2022-12-18T03:13:10.420Z,-2.20
2022-12-18T03:18:11.882Z,-2.20
2022-12-18T03:23:13.318Z,-2.30
2022-12-18T03:28:14.770Z,-2.30
2022-12-18T03:33:16.245Z,-2.20
2022-12-18T03:38:17.700Z,-2.20
2022-12-18T03:43:19.171Z,-2.20
2022-12-18T03:48:20.610Z,-2.20
2022-12-18T03:53:22.055Z,-2.30
2022-12-18T03:58:23.522Z,-2.30
2022-12-18T04:03:26.648Z,-2.30
2022-12-18T04:08:28.313Z,-2.30
2022-12-18T04:13:29.758Z,-2.40
2022-12-18T04:18:31.715Z,-2.50
2022-12-18T04:29:02.083Z,-2.70
2022-12-18T04:34:03.502Z,-2.70
2022-12-18T04:39:04.909Z,-2.70
2022-12-18T04:44:06.367Z,-2.70
2022-12-18T04:49:08.004Z,-2.70
2022-12-18T04:54:09.476Z,-2.70
2022-12-18T04:59:10.929Z,-2.80
2022-12-18T05:04:12.430Z,-2.90
2022-12-18T05:09:13.943Z,-3.00
2022-12-18T05:14:15.366Z,-3.10
2022-12-18T05:19:16.814Z,-3.00
2022-12-18T05:24:18.262Z,-3.00
2022-12-18T05:29:19.827Z,-3.00
2022-12-18T05:34:21.288Z,-3.10
2022-12-18T05:39:22.709Z,-3.10
2022-12-18T05:44:24.136Z,-3.20
2022-12-18T05:49:25.575Z,-3.20
2022-12-18T05:54:27.031Z,-3.30
2022-12-18T05:59:28.450Z,-3.40
2022-12-18T06:04:29.853Z,-3.40
2022-12-18T06:09:31.283Z,-3.50
2022-12-18T06:14:32.755Z,-3.50
2022-12-18T06:19:34.216Z,-3.60
2022-12-18T06:24:36.985Z,-3.60
2022-12-18T06:29:48.731Z,-3.60
2022-12-18T06:34:50.146Z,-3.60
2022-12-18T06:39:51.591Z,-3.60
2022-12-18T06:44:53.043Z,-3.60
2022-12-18T06:49:54.499Z,-3.60
2022-12-18T06:54:55.925Z,-3.60
2022-12-18T06:59:57.412Z,-3.70
2022-12-18T07:04:58.830Z,-3.80
2022-12-18T07:10:00.330Z,-3.80
2022-12-18T07:15:01.760Z,-3.80
2022-12-18T07:20:03.250Z,-3.90
2022-12-18T07:25:04.871Z,-3.90
2022-12-18T07:30:06.331Z,-3.90
2022-12-18T07:35:07.818Z,-4.00
2022-12-18T07:40:09.317Z,-4.00
2022-12-18T07:45:10.770Z,-4.00
2022-12-18T07:50:12.203Z,-4.10
2022-12-18T07:55:13.622Z,-4.20
2022-12-18T08:00:15.074Z,-4.30
2022-12-18T08:05:16.545Z,-4.30
2022-12-18T08:10:18.005Z,-4.30
2022-12-18T08:15:19.472Z,-4.40
2022-12-18T08:20:20.938Z,-4.30
2022-12-18T08:25:22.366Z,-4.30
2022-12-18T08:30:23.790Z,-4.30
2022-12-18T08:35:25.521Z,-4.20
2022-12-18T08:40:27.055Z,-4.20
2022-12-18T08:45:28.534Z,-4.30
2022-12-18T08:50:29.953Z,-4.30
2022-12-18T08:55:31.364Z,-4.20
2022-12-18T09:00:32.819Z,-4.10
2022-12-18T09:05:34.239Z,-4.00
2022-12-18T09:10:40.163Z,-4.10
2022-12-18T09:15:44.588Z,-4.00
2022-12-18T09:20:46.014Z,-4.10
2022-12-18T09:25:47.441Z,-4.10
2022-12-18T09:30:48.928Z,-4.00
2022-12-18T09:35:50.406Z,-4.00
2022-12-18T09:40:51.862Z,-4.00
2022-12-18T09:45:53.528Z,-3.90
2022-12-18T09:50:55.019Z,-4.00
2022-12-18T09:55:56.446Z,-4.00
2022-12-18T10:00:57.884Z,-3.90
2022-12-18T10:05:59.294Z,-4.00
2022-12-18T10:11:00.709Z,-3.90
2022-12-18T10:16:02.245Z,-3.90
2022-12-18T10:21:03.771Z,-3.90
2022-12-18T10:26:06.227Z,-4.00
2022-12-18T10:31:07.727Z,-4.00
2022-12-18T10:36:09.227Z,-4.10
2022-12-18T10:41:10.651Z,-4.10
2022-12-18T10:46:13.362Z,-4.20
2022-12-18T10:51:14.891Z,-4.20
2022-12-18T10:56:16.342Z,-4.20
2022-12-18T11:01:17.925Z,-4.20
2022-12-18T11:06:19.438Z,-4.30
2022-12-18T11:11:20.851Z,-4.30
2022-12-18T11:16:22.410Z,-4.20
2022-12-18T11:21:23.914Z,-4.20
2022-12-18T11:26:25.346Z,-4.10
2022-12-18T11:31:29.519Z,-4.20
2022-12-18T11:36:31.031Z,-4.10
2022-12-18T11:41:32.474Z,-4.20
2022-12-18T11:46:33.947Z,-4.30
2022-12-18T11:51:35.399Z,-4.20
2022-12-18T11:56:36.815Z,-4.20
2022-12-18T12:01:43.901Z,-4.30
2022-12-18T12:06:45.906Z,-4.30
2022-12-18T12:11:47.330Z,-4.20
2022-12-18T12:16:48.784Z,-4.30
2022-12-18T12:21:50.243Z,-4.30
2022-12-18T12:26:51.704Z,-4.30
2022-12-18T12:31:53.183Z,-4.30
2022-12-18T12:36:54.723Z,-4.30
2022-12-18T12:41:56.159Z,-4.20
2022-12-18T12:46:57.613Z,-4.20
2022-12-18T12:51:59.440Z,-4.10
2022-12-18T12:57:01.299Z,-4.10
2022-12-18T13:02:02.891Z,-4.20
2022-12-18T13:07:04.699Z,-4.20
2022-12-18T13:12:06.286Z,-4.30
2022-12-18T13:17:08.343Z,-4.30
2022-12-18T13:22:10.179Z,-4.20
2022-12-18T13:27:11.663Z,-4.30
2022-12-18T13:32:18.352Z,-4.20
2022-12-18T13:37:21.316Z,-4.30
2022-12-18T13:42:22.916Z,-4.30
2022-12-18T13:47:24.342Z,-4.40
2022-12-18T13:52:25.761Z,-4.40
2022-12-18T13:57:27.424Z,-4.40
2022-12-18T14:02:28.995Z,-4.50
2022-12-18T14:07:33.096Z,-4.50
2022-12-18T14:12:40.885Z,-4.60
2022-12-18T14:17:42.313Z,-4.70
2022-12-18T14:22:43.735Z,-4.70
2022-12-18T14:27:45.154Z,-4.80
2022-12-18T14:32:46.579Z,-4.80
2022-12-18T14:37:47.997Z,-4.90
2022-12-18T14:42:49.447Z,-4.90
2022-12-18T14:47:50.880Z,-4.90
2022-12-18T14:52:52.327Z,-4.90
2022-12-18T14:57:53.754Z,-4.90
2022-12-18T15:02:55.363Z,-4.90
2022-12-18T15:07:56.865Z,-4.90
2022-12-18T15:12:58.310Z,-4.90
2022-12-18T15:17:59.755Z,-4.90
2022-12-18T15:23:01.187Z,-5.00
2022-12-18T15:28:02.607Z,-5.10
2022-12-18T15:33:04.029Z,-5.20
2022-12-18T15:38:05.445Z,-5.20
2022-12-18T15:43:06.891Z,-5.30
2022-12-18T15:48:08.351Z,-5.30
2022-12-18T15:53:09.780Z,-5.30
2022-12-18T15:58:11.234Z,-5.40
2022-12-18T16:03:14.318Z,-5.40
2022-12-18T16:08:15.830Z,-5.50
2022-12-18T16:13:17.281Z,-5.60
2022-12-18T16:18:18.741Z,-5.70
2022-12-18T16:23:20.211Z,-5.70
2022-12-18T16:28:21.634Z,-5.80
2022-12-18T16:33:23.058Z,-5.80
2022-12-18T16:38:24.466Z,-5.90
2022-12-18T16:43:25.915Z,-6.00
2022-12-18T16:48:27.372Z,-6.00
2022-12-18T16:53:29.287Z,-6.00
2022-12-18T16:58:30.766Z,-6.00
2022-12-18T17:03:32.264Z,-6.10
2022-12-18T17:08:33.780Z,-6.10
2022-12-18T17:13:35.234Z,-6.20
2022-12-18T17:18:36.687Z,-6.30
2022-12-18T17:23:38.644Z,-6.40
2022-12-18T17:28:40.687Z,-6.40
2022-12-18T17:33:42.754Z,-6.50
2022-12-18T17:38:44.399Z,-6.60
2022-12-18T17:43:45.879Z,-6.60
2022-12-18T17:48:47.335Z,-6.60
2022-12-18T17:53:48.760Z,-6.70
2022-12-18T17:58:50.177Z,-6.70
2022-12-18T18:03:53.614Z,-6.80
2022-12-18T18:08:55.547Z,-6.80
2022-12-18T18:14:00.225Z,-6.80
2022-12-18T18:19:01.682Z,-6.80
2022-12-18T18:24:03.178Z,-6.80
2022-12-18T18:29:05.226Z,-6.80
2022-12-18T18:34:07.193Z,-6.80
2022-12-18T18:39:09.620Z,-6.90
2022-12-18T18:44:11.932Z,-6.90
2022-12-18T18:49:13.367Z,-6.90
2022-12-18T18:54:14.777Z,-7.00
2022-12-18T18:59:16.239Z,-7.00
2022-12-18T19:04:17.675Z,-7.00
2022-12-18T19:09:19.128Z,-7.10
2022-12-18T19:14:20.758Z,-7.20
2022-12-18T19:19:22.216Z,-7.20
2022-12-18T19:24:23.785Z,-7.30
2022-12-18T19:29:25.209Z,-7.30
2022-12-18T19:34:26.632Z,-7.40
2022-12-18T19:39:28.052Z,-7.40
2022-12-18T19:44:29.507Z,-7.40
2022-12-18T19:49:30.943Z,-7.50
2022-12-18T19:54:32.400Z,-7.50
2022-12-18T19:59:33.824Z,-7.60
2022-12-18T20:04:35.279Z,-7.60
2022-12-18T20:09:36.753Z,-7.60
2022-12-18T20:14:38.716Z,-7.60
2022-12-18T20:19:40.146Z,-7.60
2022-12-18T20:24:42.184Z,-7.70
2022-12-18T20:29:43.785Z,-7.70
2022-12-18T20:34:45.248Z,-7.70
2022-12-18T20:39:46.725Z,-7.70
2022-12-18T20:44:48.899Z,-7.70
2022-12-18T20:49:50.322Z,-7.70
2022-12-18T20:54:51.766Z,-7.70
2022-12-18T20:59:53.175Z,-7.80
2022-12-18T21:04:54.607Z,-7.80
2022-12-18T21:09:56.015Z,-7.80
2022-12-18T21:14:57.502Z,-7.90
2022-12-18T21:19:58.922Z,-7.90
2022-12-18T21:25:00.563Z,-7.90
2022-12-18T21:30:02.010Z,-7.90
2022-12-18T21:35:03.471Z,-7.90
2022-12-18T21:40:04.902Z,-7.90
2022-12-18T21:45:06.346Z,-7.90
2022-12-18T21:50:07.810Z,-7.80
2022-12-18T21:55:10.257Z,-7.80
2022-12-18T22:00:18.574Z,-7.80
2022-12-18T22:05:21.061Z,-7.80
2022-12-18T22:10:22.486Z,-7.70
2022-12-18T22:15:23.950Z,-7.70
2022-12-18T22:20:25.414Z,-7.70
2022-12-18T22:25:28.232Z,-7.70
2022-12-18T22:30:29.656Z,-7.70
2022-12-18T22:35:31.520Z,-7.60
2022-12-18T22:40:32.963Z,-7.60
2022-12-18T22:45:35.722Z,-7.60
2022-12-18T22:50:40.259Z,-7.50
2022-12-18T22:55:41.712Z,-7.60
2022-12-18T23:00:43.136Z,-7.60
2022-12-18T23:05:44.604Z,-7.60
2022-12-18T23:10:46.050Z,-7.60
2022-12-18T23:15:47.515Z,-7.60
2022-12-18T23:20:48.960Z,-7.70
2022-12-18T23:25:51.522Z,-7.80
2022-12-18T23:30:53.023Z,-7.90
2022-12-18T23:35:54.525Z,-8.00
2022-12-18T23:40:56.337Z,-8.10
2022-12-18T23:45:58.295Z,-8.20
2022-12-18T23:50:59.713Z,-8.20
2022-12-18T23:56:01.163Z,-8.20
